sensor_id;sensor_type;location;lat;lon;timestamp;temperature;humidity
43089;DHT22;28709;52.030;5.652;2022-09-23T00:00:32;11.30;99.90
43089;DHT22;28709;52.030;5.652;2022-09-23T00:02:58;11.30;99.90
43089;DHT22;28709;52.030;5.652;2022-09-23T00:05:28;11.30;99.90
43089;DHT22;28709;52.030;5.652;2022-09-23T00:07:54;11.30;99.90
43089;DHT22;28709;52.030;5.652;2022-09-23T00:10:21;11.30;99.90
43089;DHT22;28709;52.030;5.652;2022-09-23T00:12:47;11.30;99.90
43089;DHT22;28709;52.030;5.652;2022-09-23T00:15:12;11.30;99.90
43089;DHT22;28709;52.030;5.652;2022-09-23T00:17:38;11.30;99.90
43089;DHT22;28709;52.030;5.652;2022-09-23T00:20:06;11.30;99.90
43089;DHT22;28709;52.030;5.652;2022-09-23T00:22:36;11.20;99.90
43089;DHT22;28709;52.030;5.652;2022-09-23T00:25:03;11.20;99.90
43089;DHT22;28709;52.030;5.652;2022-09-23T00:27:29;11.20;99.90
43089;DHT22;28709;52.030;5.652;2022-09-23T00:29:55;11.20;99.90
43089;DHT22;28709;52.030;5.652;2022-09-23T00:32:21;11.10;99.90
43089;DHT22;28709;52.030;5.652;2022-09-23T00:34:46;11.10;99.90
43089;DHT22;28709;52.030;5.652;2022-09-23T00:37:13;11.10;99.90
43089;DHT22;28709;52.030;5.652;2022-09-23T00:39:39;11.10;99.90
43089;DHT22;28709;52.030;5.652;2022-09-23T00:42:08;11.10;99.90
43089;DHT22;28709;52.030;5.652;2022-09-23T00:44:51;11.10;99.90
43089;DHT22;28709;52.030;5.652;2022-09-23T00:50:09;11.00;99.90
43089;DHT22;28709;52.030;5.652;2022-09-23T00:52:37;11.00;99.90
43089;DHT22;28709;52.030;5.652;2022-09-23T00:55:12;11.00;99.90
43089;DHT22;28709;52.030;5.652;2022-09-23T00:57:41;10.90;99.90
43089;DHT22;28709;52.030;5.652;2022-09-23T01:00:09;10.90;99.90
43089;DHT22;28709;52.030;5.652;2022-09-23T01:02:35;10.90;99.90
43089;DHT22;28709;52.030;5.652;2022-09-23T01:05:03;10.90;99.90
43089;DHT22;28709;52.030;5.652;2022-09-23T01:07:29;10.80;99.90
43089;DHT22;28709;52.030;5.652;2022-09-23T01:09:56;10.80;99.90
43089;DHT22;28709;52.030;5.652;2022-09-23T01:12:54;10.80;99.90
43089;DHT22;28709;52.030;5.652;2022-09-23T01:15:36;10.80;99.90
43089;DHT22;28709;52.030;5.652;2022-09-23T01:37:46;10.50;99.90
43089;DHT22;28709;52.030;5.652;2022-09-23T01:40:56;10.50;99.90
43089;DHT22;28709;52.030;5.652;2022-09-23T01:43:35;10.50;99.90
43089;DHT22;28709;52.030;5.652;2022-09-23T01:46:51;10.50;99.90
43089;DHT22;28709;52.030;5.652;2022-09-23T01:49:21;10.50;99.90
43089;DHT22;28709;52.030;5.652;2022-09-23T01:51:50;10.40;99.90
43089;DHT22;28709;52.030;5.652;2022-09-23T01:54:23;10.40;99.90
43089;DHT22;28709;52.030;5.652;2022-09-23T01:56:56;10.40;99.90
43089;DHT22;28709;52.030;5.652;2022-09-23T01:59:49;10.30;99.90
43089;DHT22;28709;52.030;5.652;2022-09-23T02:04:50;10.30;99.90
43089;DHT22;28709;52.030;5.652;2022-09-23T02:07:30;10.30;99.90
43089;DHT22;28709;52.030;5.652;2022-09-23T02:10:29;10.20;99.90
43089;DHT22;28709;52.030;5.652;2022-09-23T02:13:01;10.20;99.90
43089;DHT22;28709;52.030;5.652;2022-09-23T02:15:39;10.20;99.90
43089;DHT22;28709;52.030;5.652;2022-09-23T02:18:14;10.20;99.90
43089;DHT22;28709;52.030;5.652;2022-09-23T02:20:42;10.30;99.90
43089;DHT22;28709;52.030;5.652;2022-09-23T02:23:18;10.30;99.90
43089;DHT22;28709;52.030;5.652;2022-09-23T02:34:18;10.50;99.90
43089;DHT22;28709;52.030;5.652;2022-09-23T02:37:20;10.50;99.90
43089;DHT22;28709;52.030;5.652;2022-09-23T02:40:24;10.50;99.90
43089;DHT22;28709;52.030;5.652;2022-09-23T02:46:05;10.70;99.90
43089;DHT22;28709;52.030;5.652;2022-09-23T02:48:53;10.80;99.90
43089;DHT22;28709;52.030;5.652;2022-09-23T02:51:21;10.80;99.90
43089;DHT22;28709;52.030;5.652;2022-09-23T02:53:52;10.80;99.90
43089;DHT22;28709;52.030;5.652;2022-09-23T02:56:19;10.90;99.90
43089;DHT22;28709;52.030;5.652;2022-09-23T02:58:49;10.90;99.90
43089;DHT22;28709;52.030;5.652;2022-09-23T03:18:18;10.90;99.90
43089;DHT22;28709;52.030;5.652;2022-09-23T03:23:20;10.90;99.90
43089;DHT22;28709;52.030;5.652;2022-09-23T03:25:51;10.90;99.90
43089;DHT22;28709;52.030;5.652;2022-09-23T03:28:20;10.90;99.90
43089;DHT22;28709;52.030;5.652;2022-09-23T03:30:50;10.90;99.90
43089;DHT22;28709;52.030;5.652;2022-09-23T03:33:17;10.80;99.90
43089;DHT22;28709;52.030;5.652;2022-09-23T03:36:05;10.90;99.90
43089;DHT22;28709;52.030;5.652;2022-09-23T03:39:05;10.80;99.90
43089;DHT22;28709;52.030;5.652;2022-09-23T03:41:39;10.80;99.90
43089;DHT22;28709;52.030;5.652;2022-09-23T03:44:07;10.80;99.90
43089;DHT22;28709;52.030;5.652;2022-09-23T03:46:34;10.80;99.90
43089;DHT22;28709;52.030;5.652;2022-09-23T03:49:18;10.80;99.90
43089;DHT22;28709;52.030;5.652;2022-09-23T03:51:48;10.80;99.90
43089;DHT22;28709;52.030;5.652;2022-09-23T03:54:14;10.70;99.90
43089;DHT22;28709;52.030;5.652;2022-09-23T03:56:40;10.70;99.90
43089;DHT22;28709;52.030;5.652;2022-09-23T03:59:05;10.70;99.90
43089;DHT22;28709;52.030;5.652;2022-09-23T04:01:31;10.70;99.90
43089;DHT22;28709;52.030;5.652;2022-09-23T04:03:57;10.70;99.90
43089;DHT22;28709;52.030;5.652;2022-09-23T04:06:23;10.60;99.90
43089;DHT22;28709;52.030;5.652;2022-09-23T04:08:48;10.60;99.90
43089;DHT22;28709;52.030;5.652;2022-09-23T04:11:14;10.70;99.90
43089;DHT22;28709;52.030;5.652;2022-09-23T04:13:40;10.70;99.90
43089;DHT22;28709;52.030;5.652;2022-09-23T04:16:06;10.60;99.90
43089;DHT22;28709;52.030;5.652;2022-09-23T04:18:31;10.60;99.90
43089;DHT22;28709;52.030;5.652;2022-09-23T04:20:58;10.60;99.90
43089;DHT22;28709;52.030;5.652;2022-09-23T04:23:25;10.60;99.90
43089;DHT22;28709;52.030;5.652;2022-09-23T04:25:51;10.60;99.90
43089;DHT22;28709;52.030;5.652;2022-09-23T04:28:18;10.60;99.90
43089;DHT22;28709;52.030;5.652;2022-09-23T04:30:44;10.60;99.90
43089;DHT22;28709;52.030;5.652;2022-09-23T04:33:11;10.60;99.90
43089;DHT22;28709;52.030;5.652;2022-09-23T04:35:37;10.60;99.90
43089;DHT22;28709;52.030;5.652;2022-09-23T04:38:04;10.60;99.90
43089;DHT22;28709;52.030;5.652;2022-09-23T04:40:30;10.60;99.90
43089;DHT22;28709;52.030;5.652;2022-09-23T04:42:56;10.60;99.90
43089;DHT22;28709;52.030;5.652;2022-09-23T04:45:21;10.60;99.90
43089;DHT22;28709;52.030;5.652;2022-09-23T04:47:47;10.60;99.90
43089;DHT22;28709;52.030;5.652;2022-09-23T04:50:13;10.60;99.90
43089;DHT22;28709;52.030;5.652;2022-09-23T04:52:38;10.60;99.90
43089;DHT22;28709;52.030;5.652;2022-09-23T04:55:05;10.60;99.90
43089;DHT22;28709;52.030;5.652;2022-09-23T04:57:31;10.60;99.90
43089;DHT22;28709;52.030;5.652;2022-09-23T04:59:57;10.60;99.90
43089;DHT22;28709;52.030;5.652;2022-09-23T05:02:24;10.60;99.90
43089;DHT22;28709;52.030;5.652;2022-09-23T05:04:50;10.60;99.90
43089;DHT22;28709;52.030;5.652;2022-09-23T05:07:16;10.60;99.90
43089;DHT22;28709;52.030;5.652;2022-09-23T05:09:42;10.60;99.90
43089;DHT22;28709;52.030;5.652;2022-09-23T05:12:08;10.60;99.90
43089;DHT22;28709;52.030;5.652;2022-09-23T05:14:34;10.60;99.90
43089;DHT22;28709;52.030;5.652;2022-09-23T05:16:59;10.60;99.90
43089;DHT22;28709;52.030;5.652;2022-09-23T05:19:25;10.60;99.90
43089;DHT22;28709;52.030;5.652;2022-09-23T05:21:51;10.60;99.90
43089;DHT22;28709;52.030;5.652;2022-09-23T05:24:16;10.60;99.90
43089;DHT22;28709;52.030;5.652;2022-09-23T05:26:44;10.60;99.90
43089;DHT22;28709;52.030;5.652;2022-09-23T05:29:10;10.60;99.90
43089;DHT22;28709;52.030;5.652;2022-09-23T05:31:36;10.60;99.90
43089;DHT22;28709;52.030;5.652;2022-09-23T05:34:03;10.60;99.90
43089;DHT22;28709;52.030;5.652;2022-09-23T05:36:31;10.60;99.90
43089;DHT22;28709;52.030;5.652;2022-09-23T05:38:57;10.60;99.90
43089;DHT22;28709;52.030;5.652;2022-09-23T05:41:24;10.60;99.90
43089;DHT22;28709;52.030;5.652;2022-09-23T05:43:51;10.60;99.90
43089;DHT22;28709;52.030;5.652;2022-09-23T05:46:25;10.70;99.90
43089;DHT22;28709;52.030;5.652;2022-09-23T05:48:54;10.70;99.90
43089;DHT22;28709;52.030;5.652;2022-09-23T05:51:22;10.70;99.90
43089;DHT22;28709;52.030;5.652;2022-09-23T05:53:50;10.70;99.90
43089;DHT22;28709;52.030;5.652;2022-09-23T05:56:19;10.70;99.90
43089;DHT22;28709;52.030;5.652;2022-09-23T05:58:48;10.70;99.90
43089;DHT22;28709;52.030;5.652;2022-09-23T06:01:17;10.70;99.90
43089;DHT22;28709;52.030;5.652;2022-09-23T06:03:48;10.70;99.90
43089;DHT22;28709;52.030;5.652;2022-09-23T06:06:15;10.70;99.90
43089;DHT22;28709;52.030;5.652;2022-09-23T06:08:45;10.70;99.90
43089;DHT22;28709;52.030;5.652;2022-09-23T06:11:12;10.70;99.90
43089;DHT22;28709;52.030;5.652;2022-09-23T06:13:39;10.70;99.90
43089;DHT22;28709;52.030;5.652;2022-09-23T06:16:07;10.80;99.90
43089;DHT22;28709;52.030;5.652;2022-09-23T06:18:34;10.80;99.90
43089;DHT22;28709;52.030;5.652;2022-09-23T06:21:00;10.80;99.90
43089;DHT22;28709;52.030;5.652;2022-09-23T06:23:26;10.80;99.90
43089;DHT22;28709;52.030;5.652;2022-09-23T06:25:52;10.80;99.90
43089;DHT22;28709;52.030;5.652;2022-09-23T06:28:18;10.90;99.90
43089;DHT22;28709;52.030;5.652;2022-09-23T06:30:44;10.90;99.90
43089;DHT22;28709;52.030;5.652;2022-09-23T06:33:10;10.90;99.90
43089;DHT22;28709;52.030;5.652;2022-09-23T06:35:35;11.00;99.90
43089;DHT22;28709;52.030;5.652;2022-09-23T06:38:04;11.00;99.90
43089;DHT22;28709;52.030;5.652;2022-09-23T06:40:30;11.00;99.90
43089;DHT22;28709;52.030;5.652;2022-09-23T06:42:57;11.00;99.90
43089;DHT22;28709;52.030;5.652;2022-09-23T06:45:23;11.00;99.90
43089;DHT22;28709;52.030;5.652;2022-09-23T06:47:55;11.00;99.90
43089;DHT22;28709;52.030;5.652;2022-09-23T06:50:23;11.10;99.90
43089;DHT22;28709;52.030;5.652;2022-09-23T06:52:53;11.10;99.90
43089;DHT22;28709;52.030;5.652;2022-09-23T06:55:24;11.10;99.90
43089;DHT22;28709;52.030;5.652;2022-09-23T06:57:52;11.20;99.90
43089;DHT22;28709;52.030;5.652;2022-09-23T07:00:18;11.20;99.90
43089;DHT22;28709;52.030;5.652;2022-09-23T07:02:43;11.20;99.90
43089;DHT22;28709;52.030;5.652;2022-09-23T07:05:09;11.20;99.90
43089;DHT22;28709;52.030;5.652;2022-09-23T07:07:35;11.30;99.90
43089;DHT22;28709;52.030;5.652;2022-09-23T07:10:02;11.40;99.90
43089;DHT22;28709;52.030;5.652;2022-09-23T07:12:30;11.40;99.90
43089;DHT22;28709;52.030;5.652;2022-09-23T07:14:56;11.40;99.90
43089;DHT22;28709;52.030;5.652;2022-09-23T07:17:22;11.50;99.90
43089;DHT22;28709;52.030;5.652;2022-09-23T07:19:51;11.50;99.90
43089;DHT22;28709;52.030;5.652;2022-09-23T07:22:17;11.60;99.90
43089;DHT22;28709;52.030;5.652;2022-09-23T07:24:43;11.70;99.90
43089;DHT22;28709;52.030;5.652;2022-09-23T07:27:11;11.70;99.90
43089;DHT22;28709;52.030;5.652;2022-09-23T07:29:41;11.80;99.90
43089;DHT22;28709;52.030;5.652;2022-09-23T07:32:08;11.90;99.90
43089;DHT22;28709;52.030;5.652;2022-09-23T07:34:34;11.90;99.90
43089;DHT22;28709;52.030;5.652;2022-09-23T07:36:59;12.00;99.90
43089;DHT22;28709;52.030;5.652;2022-09-23T07:39:25;12.20;99.90
43089;DHT22;28709;52.030;5.652;2022-09-23T07:41:50;12.30;99.90
43089;DHT22;28709;52.030;5.652;2022-09-23T07:44:16;12.50;99.90
43089;DHT22;28709;52.030;5.652;2022-09-23T07:46:43;12.80;99.90
43089;DHT22;28709;52.030;5.652;2022-09-23T07:49:09;13.00;99.90
43089;DHT22;28709;52.030;5.652;2022-09-23T07:51:37;13.20;99.90
43089;DHT22;28709;52.030;5.652;2022-09-23T07:54:10;13.30;99.90
43089;DHT22;28709;52.030;5.652;2022-09-23T07:56:36;13.40;99.90
43089;DHT22;28709;52.030;5.652;2022-09-23T07:59:03;13.40;99.90
43089;DHT22;28709;52.030;5.652;2022-09-23T08:01:37;13.40;99.90
43089;DHT22;28709;52.030;5.652;2022-09-23T08:04:06;13.30;99.90
43089;DHT22;28709;52.030;5.652;2022-09-23T08:06:33;13.30;99.90
43089;DHT22;28709;52.030;5.652;2022-09-23T08:09:00;13.30;99.90
43089;DHT22;28709;52.030;5.652;2022-09-23T08:11:26;13.30;99.90
43089;DHT22;28709;52.030;5.652;2022-09-23T08:13:52;13.20;99.90
43089;DHT22;28709;52.030;5.652;2022-09-23T08:16:19;13.20;99.90
43089;DHT22;28709;52.030;5.652;2022-09-23T08:18:45;13.20;99.90
43089;DHT22;28709;52.030;5.652;2022-09-23T08:21:11;13.30;99.90
43089;DHT22;28709;52.030;5.652;2022-09-23T08:23:37;13.20;99.90
43089;DHT22;28709;52.030;5.652;2022-09-23T08:26:04;13.20;99.90
43089;DHT22;28709;52.030;5.652;2022-09-23T08:28:31;13.20;99.90
43089;DHT22;28709;52.030;5.652;2022-09-23T08:30:58;13.20;99.90
43089;DHT22;28709;52.030;5.652;2022-09-23T08:33:24;13.30;99.90
43089;DHT22;28709;52.030;5.652;2022-09-23T08:35:51;13.30;99.90
43089;DHT22;28709;52.030;5.652;2022-09-23T08:38:18;13.40;99.90
43089;DHT22;28709;52.030;5.652;2022-09-23T08:40:46;13.50;99.90
43089;DHT22;28709;52.030;5.652;2022-09-23T08:43:25;13.60;99.90
43089;DHT22;28709;52.030;5.652;2022-09-23T08:45:54;13.60;99.90
43089;DHT22;28709;52.030;5.652;2022-09-23T08:48:28;13.60;99.90
43089;DHT22;28709;52.030;5.652;2022-09-23T08:51:01;13.60;99.90
43089;DHT22;28709;52.030;5.652;2022-09-23T08:53:37;13.70;99.90
43089;DHT22;28709;52.030;5.652;2022-09-23T08:56:08;13.80;99.90
43089;DHT22;28709;52.030;5.652;2022-09-23T08:58:49;13.90;99.90
43089;DHT22;28709;52.030;5.652;2022-09-23T09:06:41;14.50;99.90
43089;DHT22;28709;52.030;5.652;2022-09-23T09:09:29;14.70;99.90
43089;DHT22;28709;52.030;5.652;2022-09-23T09:15:04;15.00;99.90
43089;DHT22;28709;52.030;5.652;2022-09-23T09:22:59;15.20;99.90
43089;DHT22;28709;52.030;5.652;2022-09-23T09:25:59;15.20;99.90
43089;DHT22;28709;52.030;5.652;2022-09-23T09:28:37;15.30;99.90
43089;DHT22;28709;52.030;5.652;2022-09-23T09:31:30;15.40;99.90
43089;DHT22;28709;52.030;5.652;2022-09-23T09:34:01;15.50;99.90
43089;DHT22;28709;52.030;5.652;2022-09-23T09:36:47;15.60;99.90
43089;DHT22;28709;52.030;5.652;2022-09-23T09:39:15;15.70;99.90
43089;DHT22;28709;52.030;5.652;2022-09-23T09:41:48;15.80;99.90
43089;DHT22;28709;52.030;5.652;2022-09-23T09:54:47;16.30;99.90
43089;DHT22;28709;52.030;5.652;2022-09-23T09:57:30;16.50;99.90
43089;DHT22;28709;52.030;5.652;2022-09-23T09:59:57;16.80;99.90
43089;DHT22;28709;52.030;5.652;2022-09-23T10:02:24;17.10;99.80
43089;DHT22;28709;52.030;5.652;2022-09-23T10:04:59;17.30;99.40
43089;DHT22;28709;52.030;5.652;2022-09-23T10:07:29;17.60;99.20
43089;DHT22;28709;52.030;5.652;2022-09-23T10:09:55;17.90;98.70
43089;DHT22;28709;52.030;5.652;2022-09-23T10:12:23;18.10;98.10
43089;DHT22;28709;52.030;5.652;2022-09-23T10:14:52;18.30;97.60
43089;DHT22;28709;52.030;5.652;2022-09-23T10:17:29;18.40;97.50
43089;DHT22;28709;52.030;5.652;2022-09-23T10:20:07;18.60;97.20
43089;DHT22;28709;52.030;5.652;2022-09-23T10:22:36;18.70;96.90
43089;DHT22;28709;52.030;5.652;2022-09-23T10:25:22;18.80;96.40
43089;DHT22;28709;52.030;5.652;2022-09-23T10:27:52;18.90;95.90
43089;DHT22;28709;52.030;5.652;2022-09-23T10:30:21;18.90;95.90
43089;DHT22;28709;52.030;5.652;2022-09-23T10:32:49;18.90;96.00
43089;DHT22;28709;52.030;5.652;2022-09-23T10:38:49;18.60;95.80
43089;DHT22;28709;52.030;5.652;2022-09-23T10:41:40;18.40;95.90
43089;DHT22;28709;52.030;5.652;2022-09-23T10:47:51;18.20;96.00
43089;DHT22;28709;52.030;5.652;2022-09-23T10:50:36;18.20;96.10
43089;DHT22;28709;52.030;5.652;2022-09-23T10:59:02;17.90;96.60
43089;DHT22;28709;52.030;5.652;2022-09-23T11:36:05;17.40;96.60
43089;DHT22;28709;52.030;5.652;2022-09-23T11:38:36;17.40;96.80
43089;DHT22;28709;52.030;5.652;2022-09-23T11:41:29;17.40;96.70
43089;DHT22;28709;52.030;5.652;2022-09-23T11:44:14;17.40;96.80
43089;DHT22;28709;52.030;5.652;2022-09-23T11:47:19;17.50;96.70
43089;DHT22;28709;52.030;5.652;2022-09-23T11:50:02;17.50;96.80
43089;DHT22;28709;52.030;5.652;2022-09-23T11:52:35;17.40;96.80
43089;DHT22;28709;52.030;5.652;2022-09-23T11:55:17;17.40;96.90
43089;DHT22;28709;52.030;5.652;2022-09-23T11:57:59;17.50;96.90
43089;DHT22;28709;52.030;5.652;2022-09-23T12:00:36;17.60;97.00
43089;DHT22;28709;52.030;5.652;2022-09-23T12:03:11;17.70;97.10
43089;DHT22;28709;52.030;5.652;2022-09-23T12:05:47;17.90;97.20
43089;DHT22;28709;52.030;5.652;2022-09-23T12:08:24;18.00;96.70
43089;DHT22;28709;52.030;5.652;2022-09-23T12:22:07;18.10;95.90
43089;DHT22;28709;52.030;5.652;2022-09-23T12:27:41;18.20;95.90
43089;DHT22;28709;52.030;5.652;2022-09-23T12:30:17;18.30;95.80
43089;DHT22;28709;52.030;5.652;2022-09-23T12:32:43;18.30;95.60
43089;DHT22;28709;52.030;5.652;2022-09-23T12:35:44;18.40;95.50
43089;DHT22;28709;52.030;5.652;2022-09-23T12:38:18;18.50;95.70
43089;DHT22;28709;52.030;5.652;2022-09-23T12:40:45;18.60;95.40
43089;DHT22;28709;52.030;5.652;2022-09-23T12:43:34;18.70;95.40
43089;DHT22;28709;52.030;5.652;2022-09-23T12:46:38;18.70;95.20
43089;DHT22;28709;52.030;5.652;2022-09-23T12:49:20;18.70;95.30
43089;DHT22;28709;52.030;5.652;2022-09-23T12:54:37;18.60;95.10
43089;DHT22;28709;52.030;5.652;2022-09-23T13:00:20;18.60;95.20
43089;DHT22;28709;52.030;5.652;2022-09-23T13:05:39;18.70;94.90
43089;DHT22;28709;52.030;5.652;2022-09-23T13:08:25;18.70;95.00
43089;DHT22;28709;52.030;5.652;2022-09-23T13:10:56;18.80;95.00
43089;DHT22;28709;52.030;5.652;2022-09-23T13:13:25;18.80;95.00
43089;DHT22;28709;52.030;5.652;2022-09-23T13:15:52;18.90;95.10
43089;DHT22;28709;52.030;5.652;2022-09-23T13:20:46;18.90;94.50
43089;DHT22;28709;52.030;5.652;2022-09-23T13:23:27;19.00;94.50
43089;DHT22;28709;52.030;5.652;2022-09-23T13:25:59;19.00;94.30
43089;DHT22;28709;52.030;5.652;2022-09-23T13:28:56;19.10;94.10
43089;DHT22;28709;52.030;5.652;2022-09-23T13:31:23;19.10;94.10
43089;DHT22;28709;52.030;5.652;2022-09-23T13:33:58;19.20;93.60
43089;DHT22;28709;52.030;5.652;2022-09-23T13:36:24;19.30;93.50
43089;DHT22;28709;52.030;5.652;2022-09-23T13:38:51;19.30;93.30
43089;DHT22;28709;52.030;5.652;2022-09-23T13:41:21;19.30;93.00
43089;DHT22;28709;52.030;5.652;2022-09-23T13:43:55;19.30;92.90
43089;DHT22;28709;52.030;5.652;2022-09-23T13:46:28;19.20;93.20
43089;DHT22;28709;52.030;5.652;2022-09-23T13:48:55;19.10;93.20
43089;DHT22;28709;52.030;5.652;2022-09-23T13:51:26;19.10;93.20
43089;DHT22;28709;52.030;5.652;2022-09-23T13:53:56;19.10;93.30
43089;DHT22;28709;52.030;5.652;2022-09-23T13:56:28;19.00;93.30
43089;DHT22;28709;52.030;5.652;2022-09-23T13:59:29;19.00;93.50
43089;DHT22;28709;52.030;5.652;2022-09-23T14:02:13;19.00;93.70
43089;DHT22;28709;52.030;5.652;2022-09-23T14:04:40;19.00;93.60
43089;DHT22;28709;52.030;5.652;2022-09-23T14:07:07;19.00;93.70
43089;DHT22;28709;52.030;5.652;2022-09-23T14:09:34;19.00;93.50
43089;DHT22;28709;52.030;5.652;2022-09-23T14:12:04;18.90;93.50
43089;DHT22;28709;52.030;5.652;2022-09-23T14:14:34;18.90;93.80
43089;DHT22;28709;52.030;5.652;2022-09-23T14:17:01;18.90;93.80
43089;DHT22;28709;52.030;5.652;2022-09-23T14:19:28;18.90;94.00
43089;DHT22;28709;52.030;5.652;2022-09-23T14:21:55;19.00;94.00
43089;DHT22;28709;52.030;5.652;2022-09-23T14:24:36;18.90;94.00
43089;DHT22;28709;52.030;5.652;2022-09-23T14:29:39;18.90;94.10
43089;DHT22;28709;52.030;5.652;2022-09-23T14:32:19;18.90;94.00
43089;DHT22;28709;52.030;5.652;2022-09-23T14:40:30;18.90;93.90
43089;DHT22;28709;52.030;5.652;2022-09-23T14:43:26;18.90;94.00
43089;DHT22;28709;52.030;5.652;2022-09-23T14:45:57;18.90;94.00
43089;DHT22;28709;52.030;5.652;2022-09-23T14:48:29;18.90;94.10
43089;DHT22;28709;52.030;5.652;2022-09-23T14:50:56;18.90;94.20
43089;DHT22;28709;52.030;5.652;2022-09-23T14:53:39;19.00;94.30
43089;DHT22;28709;52.030;5.652;2022-09-23T14:59:00;18.90;94.10
43089;DHT22;28709;52.030;5.652;2022-09-23T15:03:59;18.90;94.30
43089;DHT22;28709;52.030;5.652;2022-09-23T15:06:38;18.90;94.40
43089;DHT22;28709;52.030;5.652;2022-09-23T15:09:05;18.90;94.50
43089;DHT22;28709;52.030;5.652;2022-09-23T15:11:32;18.90;94.50
43089;DHT22;28709;52.030;5.652;2022-09-23T15:14:02;18.80;94.60
43089;DHT22;28709;52.030;5.652;2022-09-23T15:16:29;18.80;94.70
43089;DHT22;28709;52.030;5.652;2022-09-23T15:18:57;18.90;94.80
43089;DHT22;28709;52.030;5.652;2022-09-23T15:21:28;18.80;94.70
43089;DHT22;28709;52.030;5.652;2022-09-23T15:23:57;18.80;94.70
43089;DHT22;28709;52.030;5.652;2022-09-23T15:26:24;18.80;94.80
43089;DHT22;28709;52.030;5.652;2022-09-23T15:28:50;18.80;94.80
43089;DHT22;28709;52.030;5.652;2022-09-23T15:31:19;18.80;94.90
43089;DHT22;28709;52.030;5.652;2022-09-23T15:33:46;18.70;94.90
43089;DHT22;28709;52.030;5.652;2022-09-23T15:36:19;18.70;95.00
43089;DHT22;28709;52.030;5.652;2022-09-23T15:38:46;18.70;95.00
43089;DHT22;28709;52.030;5.652;2022-09-23T15:41:13;18.60;95.10
43089;DHT22;28709;52.030;5.652;2022-09-23T15:43:39;18.60;95.20
43089;DHT22;28709;52.030;5.652;2022-09-23T15:46:21;18.50;95.30
43089;DHT22;28709;52.030;5.652;2022-09-23T15:49:03;18.50;95.50
43089;DHT22;28709;52.030;5.652;2022-09-23T15:51:30;18.50;95.60
43089;DHT22;28709;52.030;5.652;2022-09-23T15:53:56;18.40;95.60
43089;DHT22;28709;52.030;5.652;2022-09-23T15:56:23;18.40;95.60
43089;DHT22;28709;52.030;5.652;2022-09-23T15:58:49;18.40;95.70
43089;DHT22;28709;52.030;5.652;2022-09-23T16:01:28;18.40;95.80
43089;DHT22;28709;52.030;5.652;2022-09-23T16:03:55;18.30;95.90
43089;DHT22;28709;52.030;5.652;2022-09-23T16:06:20;18.30;96.00
43089;DHT22;28709;52.030;5.652;2022-09-23T16:08:47;18.20;96.20
43089;DHT22;28709;52.030;5.652;2022-09-23T16:11:25;18.20;96.20
43089;DHT22;28709;52.030;5.652;2022-09-23T16:13:54;18.20;96.30
43089;DHT22;28709;52.030;5.652;2022-09-23T16:16:19;18.20;96.30
43089;DHT22;28709;52.030;5.652;2022-09-23T16:18:45;18.10;96.30
43089;DHT22;28709;52.030;5.652;2022-09-23T16:21:13;18.10;96.50
43089;DHT22;28709;52.030;5.652;2022-09-23T16:23:42;18.00;96.60
43089;DHT22;28709;52.030;5.652;2022-09-23T16:26:24;17.90;96.70
43089;DHT22;28709;52.030;5.652;2022-09-23T16:28:53;17.90;96.80
43089;DHT22;28709;52.030;5.652;2022-09-23T16:31:19;17.80;96.90
43089;DHT22;28709;52.030;5.652;2022-09-23T16:33:47;17.80;97.00
43089;DHT22;28709;52.030;5.652;2022-09-23T16:36:27;17.70;97.10
43089;DHT22;28709;52.030;5.652;2022-09-23T16:38:55;17.70;97.20
43089;DHT22;28709;52.030;5.652;2022-09-23T16:41:22;17.70;97.40
43089;DHT22;28709;52.030;5.652;2022-09-23T16:43:49;17.60;97.60
43089;DHT22;28709;52.030;5.652;2022-09-23T16:46:15;17.60;98.00
43089;DHT22;28709;52.030;5.652;2022-09-23T16:48:42;17.50;98.30
43089;DHT22;28709;52.030;5.652;2022-09-23T16:51:13;17.40;99.10
43089;DHT22;28709;52.030;5.652;2022-09-23T16:53:40;17.20;99.70
43089;DHT22;28709;52.030;5.652;2022-09-23T16:56:07;17.10;99.90
43089;DHT22;28709;52.030;5.652;2022-09-23T16:58:34;16.90;99.90
43089;DHT22;28709;52.030;5.652;2022-09-23T17:01:00;16.80;99.90
43089;DHT22;28709;52.030;5.652;2022-09-23T17:03:45;16.70;99.90
43089;DHT22;28709;52.030;5.652;2022-09-23T17:06:12;16.70;99.90
43089;DHT22;28709;52.030;5.652;2022-09-23T17:08:39;16.60;99.90
43089;DHT22;28709;52.030;5.652;2022-09-23T17:11:06;16.60;99.90
43089;DHT22;28709;52.030;5.652;2022-09-23T17:13:32;16.50;99.90
43089;DHT22;28709;52.030;5.652;2022-09-23T17:15:58;16.40;99.90
43089;DHT22;28709;52.030;5.652;2022-09-23T17:18:24;16.30;99.90
43089;DHT22;28709;52.030;5.652;2022-09-23T17:21:01;16.30;99.90
43089;DHT22;28709;52.030;5.652;2022-09-23T17:23:29;16.20;99.90
43089;DHT22;28709;52.030;5.652;2022-09-23T17:25:56;16.20;99.90
43089;DHT22;28709;52.030;5.652;2022-09-23T17:28:22;16.10;99.90
43089;DHT22;28709;52.030;5.652;2022-09-23T17:30:59;16.10;99.90
43089;DHT22;28709;52.030;5.652;2022-09-23T17:33:27;16.10;99.90
43089;DHT22;28709;52.030;5.652;2022-09-23T17:35:53;16.00;99.90
43089;DHT22;28709;52.030;5.652;2022-09-23T17:38:20;15.90;99.90
43089;DHT22;28709;52.030;5.652;2022-09-23T17:40:54;15.90;99.90
43089;DHT22;28709;52.030;5.652;2022-09-23T17:43:20;15.90;99.90
43089;DHT22;28709;52.030;5.652;2022-09-23T17:45:55;15.80;99.90
43089;DHT22;28709;52.030;5.652;2022-09-23T17:48:22;15.80;99.90
43089;DHT22;28709;52.030;5.652;2022-09-23T17:50:54;15.70;99.90
43089;DHT22;28709;52.030;5.652;2022-09-23T17:53:20;15.70;99.90
43089;DHT22;28709;52.030;5.652;2022-09-23T17:56:06;15.70;99.90
43089;DHT22;28709;52.030;5.652;2022-09-23T17:58:35;15.70;99.90
43089;DHT22;28709;52.030;5.652;2022-09-23T18:01:01;15.60;99.90
43089;DHT22;28709;52.030;5.652;2022-09-23T18:03:28;15.60;99.90
43089;DHT22;28709;52.030;5.652;2022-09-23T18:06:03;15.60;99.90
43089;DHT22;28709;52.030;5.652;2022-09-23T18:08:29;15.60;99.90
43089;DHT22;28709;52.030;5.652;2022-09-23T18:10:55;15.60;99.90
43089;DHT22;28709;52.030;5.652;2022-09-23T18:13:20;15.60;99.90
43089;DHT22;28709;52.030;5.652;2022-09-23T18:15:46;15.50;99.90
43089;DHT22;28709;52.030;5.652;2022-09-23T18:18:12;15.50;99.90
43089;DHT22;28709;52.030;5.652;2022-09-23T18:20:37;15.50;99.90
43089;DHT22;28709;52.030;5.652;2022-09-23T18:23:03;15.40;99.90
43089;DHT22;28709;52.030;5.652;2022-09-23T18:25:31;15.40;99.90
43089;DHT22;28709;52.030;5.652;2022-09-23T18:27:57;15.40;99.90
43089;DHT22;28709;52.030;5.652;2022-09-23T18:30:23;15.30;99.90
43089;DHT22;28709;52.030;5.652;2022-09-23T18:32:49;15.30;99.90
43089;DHT22;28709;52.030;5.652;2022-09-23T18:35:16;15.30;99.90
43089;DHT22;28709;52.030;5.652;2022-09-23T18:37:42;15.30;99.90
43089;DHT22;28709;52.030;5.652;2022-09-23T18:40:08;15.30;99.90